createdAt,value
2019-01-26T00:01:41.489Z,24.30
2019-01-26T00:04:11.254Z,23.47
2019-01-26T00:06:40.972Z,25.90
2019-01-26T00:09:10.995Z,23.37
2019-01-26T00:11:40.774Z,24.80
2019-01-26T00:14:10.404Z,24.53
2019-01-26T00:16:40.047Z,25.80
2019-01-26T00:19:10.181Z,25.70
2019-01-26T00:21:39.724Z,25.50
2019-01-26T00:24:09.282Z,26.47
2019-01-26T00:26:39.254Z,27.83
2019-01-26T00:29:08.816Z,25.50
2019-01-26T00:31:38.495Z,25.43
2019-01-26T00:34:08.139Z,26.33
2019-01-26T00:36:37.685Z,27.27
2019-01-26T00:39:08.881Z,27.37
2019-01-26T00:41:38.535Z,27.40
2019-01-26T00:44:08.098Z,26.00
2019-01-26T00:46:37.649Z,27.47
2019-01-26T00:49:07.331Z,27.60
2019-01-26T00:51:36.888Z,28.23
2019-01-26T00:54:06.590Z,28.10
2019-01-26T00:56:36.262Z,24.93
2019-01-26T00:59:06.067Z,27.00
2019-01-26T01:01:35.695Z,25.27
2019-01-26T01:04:06.015Z,25.43
2019-01-26T01:06:35.640Z,25.50
2019-01-26T01:09:08.567Z,27.13
2019-01-26T01:11:38.128Z,26.37
2019-01-26T01:14:07.934Z,24.80
2019-01-26T01:16:37.549Z,26.20
2019-01-26T01:19:07.562Z,24.93
2019-01-26T01:21:37.230Z,26.17
2019-01-26T01:24:06.823Z,28.23
2019-01-26T01:26:36.494Z,25.77
2019-01-26T01:29:06.264Z,25.70
2019-01-26T01:31:35.815Z,26.70
2019-01-26T01:34:05.562Z,27.70
2019-01-26T01:36:35.121Z,24.70
2019-01-26T01:39:08.060Z,25.73
2019-01-26T01:41:37.660Z,24.63
2019-01-26T01:44:07.331Z,24.77
2019-01-26T01:46:42.854Z,24.73
2019-01-26T01:49:08.445Z,26.03
2019-01-26T01:51:37.989Z,24.83
2019-01-26T01:54:07.613Z,24.83
2019-01-26T01:56:37.219Z,25.50
2019-01-26T01:59:06.838Z,22.93
2019-01-26T02:01:36.406Z,24.13
2019-01-26T02:04:06.237Z,23.13
2019-01-26T02:06:35.793Z,24.90
2019-01-26T02:09:07.947Z,25.70
2019-01-26T02:11:38.555Z,24.17
2019-01-26T02:14:08.178Z,23.37
2019-01-26T02:16:37.729Z,23.97
2019-01-26T02:19:07.655Z,25.07
2019-01-26T02:21:37.203Z,22.63
2019-01-26T02:24:06.751Z,24.70
2019-01-26T02:26:36.324Z,22.57
2019-01-26T02:29:06.049Z,23.30
2019-01-26T02:31:35.594Z,23.63
2019-01-26T02:34:05.768Z,23.97
2019-01-26T02:36:35.315Z,24.87
2019-01-26T02:39:07.857Z,24.30
2019-01-26T02:41:37.431Z,23.70
2019-01-26T02:44:06.984Z,23.20
2019-01-26T02:46:36.538Z,24.60
2019-01-26T02:49:06.122Z,25.83
2019-01-26T02:51:35.678Z,25.93
2019-01-26T02:54:05.470Z,23.60
2019-01-26T02:56:35.012Z,24.67
2019-01-26T02:59:04.604Z,24.70
2019-01-26T03:01:34.145Z,26.90
2019-01-26T03:04:04.066Z,25.87
2019-01-26T03:06:33.660Z,26.80
2019-01-26T03:09:04.834Z,26.00
2019-01-26T03:11:34.380Z,23.60
2019-01-26T03:14:03.935Z,25.13
2019-01-26T03:16:33.870Z,24.90
2019-01-26T03:19:03.561Z,25.87
2019-01-26T03:21:33.088Z,26.77
2019-01-26T03:24:02.619Z,23.20
2019-01-26T03:26:32.272Z,27.37
2019-01-26T03:29:01.794Z,26.77
2019-01-26T03:31:31.320Z,27.37
2019-01-26T03:34:01.036Z,23.30
2019-01-26T03:36:30.554Z,27.37
2019-01-26T03:39:00.087Z,25.63
2019-01-26T03:41:29.698Z,25.63
2019-01-26T03:43:59.220Z,26.47
2019-01-26T03:46:28.769Z,25.93
2019-01-26T03:48:58.322Z,26.10
2019-01-26T03:51:27.854Z,25.20
2019-01-26T03:53:57.376Z,24.00
2019-01-26T03:56:26.933Z,25.63
2019-01-26T03:58:56.452Z,25.37
2019-01-26T04:01:25.990Z,26.30
2019-01-26T04:03:55.625Z,26.30
2019-01-26T04:06:25.121Z,27.80
2019-01-26T04:08:54.651Z,26.37
2019-01-26T04:11:24.208Z,25.10
2019-01-26T04:13:53.737Z,25.90
2019-01-26T04:16:23.276Z,25.70
2019-01-26T04:18:53.193Z,25.50
2019-01-26T04:21:22.717Z,24.20
2019-01-26T04:23:52.240Z,25.83
2019-01-26T04:26:22.038Z,26.70
2019-01-26T04:28:51.565Z,27.03
2019-01-26T04:31:21.083Z,26.53
2019-01-26T04:33:50.651Z,28.20
2019-01-26T04:36:20.178Z,27.43
2019-01-26T04:38:49.784Z,26.53
2019-01-26T04:41:19.340Z,26.60
2019-01-26T04:43:48.888Z,25.67
2019-01-26T04:46:18.422Z,26.93
2019-01-26T04:48:48.105Z,25.07
2019-01-26T04:51:17.628Z,26.37
2019-01-26T04:53:47.149Z,25.60
2019-01-26T04:56:17.058Z,27.33
2019-01-26T04:58:46.590Z,25.93
2019-01-26T05:01:16.202Z,27.90
2019-01-26T05:03:45.739Z,27.37
2019-01-26T05:06:15.254Z,27.67
2019-01-26T05:08:44.785Z,29.70
2019-01-26T05:11:14.680Z,27.43
2019-01-26T05:13:44.214Z,26.37
2019-01-26T05:16:13.733Z,26.77
2019-01-26T05:18:43.285Z,27.20
2019-01-26T05:21:12.811Z,28.37
2019-01-26T05:23:42.350Z,27.70
2019-01-26T05:26:11.876Z,28.27
2019-01-26T05:28:41.414Z,26.07
2019-01-26T05:31:11.006Z,29.30
2019-01-26T05:33:40.632Z,26.83
2019-01-26T05:36:10.223Z,26.90
2019-01-26T05:38:39.768Z,28.43
2019-01-26T05:41:09.302Z,27.33
2019-01-26T05:43:38.825Z,25.30
2019-01-26T05:46:08.418Z,28.43
2019-01-26T05:48:38.039Z,27.10
2019-01-26T05:51:07.666Z,27.37
2019-01-26T05:53:37.207Z,26.90
2019-01-26T05:56:06.758Z,27.47
2019-01-26T05:58:36.283Z,27.97
2019-01-26T06:01:06.175Z,25.33
2019-01-26T06:03:35.895Z,26.77
2019-01-26T06:06:05.619Z,26.90
2019-01-26T06:08:35.229Z,27.50
2019-01-26T06:11:05.395Z,26.50
2019-01-26T06:13:34.914Z,28.83
2019-01-26T06:16:04.586Z,27.17
2019-01-26T06:18:34.502Z,27.60
2019-01-26T06:21:04.031Z,27.80
2019-01-26T06:23:33.554Z,27.37
2019-01-26T06:26:03.733Z,26.50
2019-01-26T06:28:33.272Z,27.57
2019-01-26T06:31:02.783Z,29.57
2019-01-26T06:33:32.350Z,30.33
2019-01-26T06:36:01.873Z,27.10
2019-01-26T06:38:31.391Z,28.50
2019-01-26T06:41:00.950Z,26.97
2019-01-26T06:43:30.465Z,26.83
2019-01-26T06:45:59.982Z,27.43
2019-01-26T06:48:29.859Z,26.50
2019-01-26T06:50:59.376Z,26.07
2019-01-26T06:53:28.913Z,27.70
2019-01-26T06:55:58.536Z,26.03
2019-01-26T06:58:28.062Z,25.87
2019-01-26T07:00:57.582Z,26.40
2019-01-26T07:03:27.241Z,30.17
2019-01-26T07:05:58.526Z,27.43
2019-01-26T07:08:28.063Z,26.70
2019-01-26T07:10:59.863Z,25.47
2019-01-26T07:13:29.437Z,30.50
2019-01-26T07:15:59.725Z,27.03
2019-01-26T07:18:29.294Z,24.77
2019-01-26T07:20:58.871Z,26.90
2019-01-26T07:23:28.394Z,23.80
2019-01-26T07:25:58.123Z,24.30
2019-01-26T07:28:27.640Z,23.23
2019-01-26T07:30:57.172Z,24.37
2019-01-26T07:33:27.031Z,25.13
2019-01-26T07:35:56.567Z,25.83
2019-01-26T07:38:26.212Z,25.23
2019-01-26T07:40:55.744Z,25.57
2019-01-26T07:43:25.348Z,26.00
2019-01-26T07:45:54.857Z,24.20
2019-01-26T07:48:24.594Z,25.17
2019-01-26T07:50:57.037Z,24.37
2019-01-26T07:53:26.633Z,22.43
2019-01-26T07:55:56.250Z,22.67
2019-01-26T07:58:25.853Z,23.70
2019-01-26T08:00:55.448Z,23.07
2019-01-26T08:03:25.007Z,24.23
2019-01-26T08:05:54.532Z,20.23
2019-01-26T08:08:24.051Z,22.60
2019-01-26T08:10:53.621Z,23.17
2019-01-26T08:13:23.587Z,21.93
2019-01-26T08:15:53.231Z,22.03
2019-01-26T08:18:24.142Z,21.60
2019-01-26T08:20:53.941Z,24.93
2019-01-26T08:23:23.448Z,22.37
2019-01-26T08:25:53.189Z,21.40
2019-01-26T08:28:22.709Z,23.23
2019-01-26T08:30:52.292Z,22.93
2019-01-26T08:33:21.943Z,24.30
2019-01-26T08:35:51.516Z,21.37
2019-01-26T08:38:21.073Z,24.03
2019-01-26T08:40:50.590Z,21.87
2019-01-26T08:43:20.136Z,22.10
2019-01-26T08:45:49.642Z,23.83
2019-01-26T08:48:19.171Z,20.93
2019-01-26T08:50:48.777Z,20.97
2019-01-26T08:53:18.287Z,24.10
2019-01-26T08:55:47.904Z,21.83
2019-01-26T08:58:17.503Z,25.70
2019-01-26T09:00:46.992Z,22.37
2019-01-26T09:03:18.495Z,21.80
2019-01-26T09:05:52.148Z,24.20
2019-01-26T09:08:21.949Z,24.73
2019-01-26T09:10:51.458Z,22.50
2019-01-26T09:13:20.971Z,24.70
2019-01-26T09:15:50.580Z,23.70
2019-01-26T09:18:20.407Z,24.80
2019-01-26T09:20:50.054Z,24.70
2019-01-26T09:23:19.578Z,22.47
2019-01-26T09:25:49.159Z,21.53
2019-01-26T09:28:18.855Z,23.13
2019-01-26T09:30:48.469Z,22.50
2019-01-26T09:33:17.998Z,20.27
2019-01-26T09:35:47.516Z,19.10
2019-01-26T09:38:17.098Z,20.97
2019-01-26T09:40:46.631Z,19.53
2019-01-26T09:43:16.222Z,19.50
2019-01-26T09:45:45.761Z,19.17
2019-01-26T09:48:15.431Z,20.47
2019-01-26T09:50:45.060Z,18.63
2019-01-26T09:53:14.581Z,18.37
2019-01-26T09:55:44.102Z,17.17
2019-01-26T09:58:13.695Z,17.67
2019-01-26T10:00:43.289Z,17.17
2019-01-26T10:03:12.909Z,17.10
2019-01-26T10:05:42.422Z,16.17
2019-01-26T10:08:11.954Z,14.60
2019-01-26T10:10:41.473Z,14.70
2019-01-26T10:13:10.990Z,15.73
2019-01-26T10:15:40.558Z,14.00
2019-01-26T10:18:10.172Z,14.00
2019-01-26T10:20:44.041Z,14.90
2019-01-26T10:23:13.559Z,14.70
2019-01-26T10:25:48.549Z,12.47
2019-01-26T10:28:14.527Z,12.70
2019-01-26T10:30:46.316Z,13.93
2019-01-26T10:33:15.884Z,14.73
2019-01-26T10:36:00.227Z,14.37
2019-01-26T10:38:30.505Z,11.90
2019-01-26T10:40:59.853Z,12.30
2019-01-26T10:43:31.028Z,12.20
2019-01-26T10:46:00.554Z,12.30
2019-01-26T10:48:30.080Z,12.37
2019-01-26T10:51:00.177Z,13.57
2019-01-26T10:53:29.816Z,12.67
2019-01-26T10:55:59.335Z,11.63
2019-01-26T10:58:28.846Z,11.00
2019-01-26T11:00:58.389Z,12.03
2019-01-26T11:03:28.032Z,12.97
2019-01-26T11:05:57.565Z,12.00
2019-01-26T11:08:27.082Z,11.03
2019-01-26T11:10:56.616Z,10.40
2019-01-26T11:13:26.135Z,11.60
2019-01-26T11:15:55.662Z,10.43
2019-01-26T11:18:25.216Z,10.77
2019-01-26T11:20:54.693Z,9.00
2019-01-26T11:23:24.221Z,10.53
2019-01-26T11:25:54.202Z,10.53
2019-01-26T11:28:23.740Z,9.60
2019-01-26T11:30:53.246Z,10.10
2019-01-26T11:33:22.759Z,9.47
2019-01-26T11:35:52.450Z,9.70
2019-01-26T11:38:21.963Z,8.97
2019-01-26T11:40:51.508Z,9.87
2019-01-26T11:43:21.022Z,9.43
2019-01-26T11:45:54.988Z,7.53
2019-01-26T11:48:28.614Z,8.80
2019-01-26T11:51:02.567Z,7.50
2019-01-26T11:53:32.191Z,7.10
2019-01-26T11:56:03.414Z,7.27
2019-01-26T11:58:32.949Z,7.43
2019-01-26T12:01:06.919Z,7.67
2019-01-26T12:03:44.146Z,7.60
2019-01-26T12:06:17.928Z,7.30
2019-01-26T12:08:47.504Z,7.50
2019-01-26T12:11:17.390Z,7.83
2019-01-26T12:13:46.903Z,7.73
2019-01-26T12:16:16.432Z,6.17
2019-01-26T12:18:45.949Z,6.47
2019-01-26T12:21:15.469Z,6.60
2019-01-26T12:23:44.976Z,6.97
2019-01-26T12:26:14.562Z,7.00
2019-01-26T12:28:44.141Z,8.07
2019-01-26T12:31:13.728Z,6.70
2019-01-26T12:33:43.249Z,6.20
2019-01-26T12:36:12.764Z,7.80
2019-01-26T12:38:42.289Z,6.73
2019-01-26T12:41:11.825Z,5.73
2019-01-26T12:43:41.340Z,5.10
2019-01-26T12:46:10.877Z,5.83
2019-01-26T12:48:40.383Z,5.60
2019-01-26T12:51:09.971Z,5.90
2019-01-26T12:53:39.479Z,6.00
2019-01-26T12:56:09.040Z,5.60
2019-01-26T12:58:38.561Z,5.70
2019-01-26T13:01:08.306Z,5.60
2019-01-26T13:03:37.853Z,5.70
2019-01-26T13:06:07.479Z,5.50
2019-01-26T13:08:37.010Z,4.90
2019-01-26T13:11:14.115Z,4.40
2019-01-26T13:13:43.644Z,4.87
2019-01-26T13:16:13.805Z,4.20
2019-01-26T13:18:43.862Z,4.43
2019-01-26T13:21:13.378Z,5.03
2019-01-26T13:23:42.925Z,5.40
2019-01-26T13:26:12.486Z,4.20
2019-01-26T13:28:41.995Z,4.00
2019-01-26T13:31:11.527Z,4.20
2019-01-26T13:33:41.037Z,4.70
2019-01-26T13:36:10.646Z,4.40
2019-01-26T13:38:40.154Z,4.00
2019-01-26T13:41:09.739Z,3.53
2019-01-26T13:43:39.293Z,3.87
2019-01-26T13:46:08.788Z,3.90
2019-01-26T13:48:38.757Z,4.73
2019-01-26T13:51:12.911Z,4.63
2019-01-26T13:53:39.511Z,4.37
2019-01-26T13:56:09.042Z,5.70
2019-01-26T13:58:38.545Z,4.80
2019-01-26T14:01:08.078Z,5.20
2019-01-26T14:03:37.581Z,5.27
2019-01-26T14:06:07.658Z,6.70
2019-01-26T14:08:37.343Z,4.70
2019-01-26T14:11:06.842Z,5.57
2019-01-26T14:13:36.442Z,4.60
2019-01-26T14:16:06.284Z,4.60
2019-01-26T14:18:35.824Z,4.57
2019-01-26T14:21:05.420Z,3.60
2019-01-26T14:23:34.986Z,3.40
2019-01-26T14:26:05.166Z,4.23
2019-01-26T14:28:34.695Z,4.37
2019-01-26T14:31:04.719Z,5.10
2019-01-26T14:33:34.236Z,4.60
2019-01-26T14:36:03.755Z,6.20
2019-01-26T14:38:33.267Z,4.63
2019-01-26T14:41:02.779Z,6.20
2019-01-26T14:43:32.586Z,5.33
2019-01-26T14:46:02.082Z,4.77
2019-01-26T14:48:31.590Z,5.40
2019-01-26T14:51:01.149Z,4.90
2019-01-26T14:53:30.666Z,5.27
2019-01-26T14:56:00.253Z,5.70
2019-01-26T14:58:30.011Z,4.50
2019-01-26T15:00:59.525Z,4.83
2019-01-26T15:03:29.032Z,5.40
2019-01-26T15:05:58.653Z,5.03
2019-01-26T15:08:28.160Z,5.30
2019-01-26T15:10:57.686Z,5.40
2019-01-26T15:13:27.219Z,5.73
2019-01-26T15:15:56.771Z,6.40
2019-01-26T15:18:26.317Z,8.53
2019-01-26T15:20:55.878Z,6.77
2019-01-26T15:23:25.649Z,7.00
2019-01-26T15:25:55.163Z,6.07
2019-01-26T15:28:24.761Z,6.20
2019-01-26T15:30:54.346Z,5.77
2019-01-26T15:33:23.988Z,4.80
2019-01-26T15:35:53.528Z,5.30
2019-01-26T15:38:23.032Z,5.80
2019-01-26T15:40:52.542Z,5.67
2019-01-26T15:43:22.241Z,5.67
2019-01-26T15:45:51.753Z,5.60
2019-01-26T15:48:21.262Z,6.50
2019-01-26T15:50:50.800Z,5.40
2019-01-26T15:53:20.296Z,5.17
2019-01-26T15:55:49.841Z,6.60
2019-01-26T15:58:19.347Z,5.70
2019-01-26T16:00:48.856Z,6.67
2019-01-26T16:03:18.379Z,6.40
2019-01-26T16:05:47.890Z,6.10
2019-01-26T16:08:18.013Z,5.73
2019-01-26T16:10:47.523Z,6.17
2019-01-26T16:13:17.027Z,6.90
2019-01-26T16:15:46.551Z,6.87
2019-01-26T16:18:16.307Z,6.90
2019-01-26T16:20:45.890Z,6.77
2019-01-26T16:23:15.388Z,7.03
2019-01-26T16:25:45.113Z,6.90
2019-01-26T16:28:14.782Z,7.87
2019-01-26T16:30:44.303Z,10.70
2019-01-26T16:33:13.835Z,8.17
2019-01-26T16:35:43.350Z,8.50
2019-01-26T16:38:12.990Z,8.63
2019-01-26T16:40:45.268Z,9.20
2019-01-26T16:43:14.767Z,9.77
2019-01-26T16:45:44.740Z,9.60
2019-01-26T16:48:14.320Z,9.77
2019-01-26T16:50:43.851Z,11.20
2019-01-26T16:53:13.429Z,10.37
2019-01-26T16:55:42.982Z,10.23
2019-01-26T16:58:12.748Z,9.97
2019-01-26T17:00:45.489Z,10.67
2019-01-26T17:03:15.137Z,11.57
2019-01-26T17:05:44.817Z,12.47
2019-01-26T17:08:14.424Z,12.93
2019-01-26T17:10:47.388Z,13.47
2019-01-26T17:13:17.305Z,12.60
2019-01-26T17:15:46.866Z,13.80
2019-01-26T17:18:16.391Z,13.90
2019-01-26T17:20:46.010Z,14.17
2019-01-26T17:23:15.671Z,13.80
2019-01-26T17:25:45.202Z,15.70
2019-01-26T17:28:14.770Z,14.90
2019-01-26T17:30:45.019Z,16.07
2019-01-26T17:33:14.556Z,15.03
2019-01-26T17:35:44.168Z,17.17
2019-01-26T17:38:13.676Z,15.17
2019-01-26T17:40:43.189Z,16.80
2019-01-26T17:43:12.731Z,16.93
2019-01-26T17:45:42.256Z,17.97
2019-01-26T17:48:11.866Z,16.37
2019-01-26T17:50:42.281Z,17.13
2019-01-26T17:53:12.202Z,17.47
2019-01-26T17:55:41.733Z,17.67
2019-01-26T17:58:11.340Z,18.43
2019-01-26T18:00:48.270Z,17.00
2019-01-26T18:03:20.538Z,18.40
2019-01-26T18:05:50.208Z,18.10
2019-01-26T18:08:19.738Z,18.10
2019-01-26T18:10:49.593Z,16.83
2019-01-26T18:13:19.140Z,16.37
2019-01-26T18:15:48.675Z,17.80
2019-01-26T18:18:18.274Z,17.07
2019-01-26T18:20:49.282Z,16.17
2019-01-26T18:23:20.660Z,16.60
2019-01-26T18:25:50.443Z,16.43
2019-01-26T18:28:19.975Z,15.43
2019-01-26T18:30:49.519Z,15.20
2019-01-26T18:33:19.033Z,14.00
2019-01-26T18:35:50.417Z,15.80
2019-01-26T18:38:19.942Z,14.53
2019-01-26T18:40:49.712Z,16.40
2019-01-26T18:43:19.254Z,14.23
2019-01-26T18:45:48.843Z,16.27
2019-01-26T18:48:18.589Z,14.80
2019-01-26T18:50:55.905Z,17.30
2019-01-26T18:53:21.295Z,15.40
2019-01-26T18:55:50.851Z,15.87
2019-01-26T18:58:20.446Z,14.60
2019-01-26T19:00:50.001Z,14.60
2019-01-26T19:03:33.049Z,15.90
2019-01-26T19:06:03.091Z,13.70
2019-01-26T19:08:32.631Z,15.40
2019-01-26T19:11:02.153Z,14.50
2019-01-26T19:13:31.683Z,14.83
2019-01-26T19:16:01.200Z,14.73
2019-01-26T19:18:30.732Z,14.47
2019-01-26T19:21:03.438Z,14.30
2019-01-26T19:23:31.791Z,14.83
2019-01-26T19:26:01.309Z,13.77
2019-01-26T19:28:31.203Z,13.93
2019-01-26T19:31:00.725Z,14.80
2019-01-26T19:33:30.241Z,13.30
2019-01-26T19:35:59.805Z,14.60
2019-01-26T19:38:29.394Z,14.00
2019-01-26T19:40:58.927Z,13.90
2019-01-26T19:43:28.615Z,12.67
2019-01-26T19:45:58.142Z,15.80
2019-01-26T19:48:27.655Z,13.00
2019-01-26T19:50:57.272Z,14.03
2019-01-26T19:53:27.027Z,14.70
2019-01-26T19:55:56.869Z,14.10
2019-01-26T19:58:26.707Z,13.80
2019-01-26T20:00:56.295Z,14.50
2019-01-26T20:03:25.883Z,15.10
2019-01-26T20:05:55.431Z,14.47
2019-01-26T20:08:25.108Z,16.23
2019-01-26T20:10:54.637Z,13.70
2019-01-26T20:13:24.182Z,13.40
2019-01-26T20:15:53.718Z,14.10
2019-01-26T20:18:23.319Z,15.83
2019-01-26T20:20:52.916Z,13.70
2019-01-26T20:23:22.446Z,14.07
2019-01-26T20:25:52.055Z,14.13
2019-01-26T20:28:21.977Z,14.73
2019-01-26T20:30:51.579Z,21.40
2019-01-26T20:33:21.271Z,15.60
2019-01-26T20:35:50.979Z,21.53
2019-01-26T20:38:20.565Z,20.40
2019-01-26T20:40:50.109Z,17.43
2019-01-26T20:43:19.982Z,16.90
2019-01-26T20:45:49.518Z,19.63
2019-01-26T20:48:19.116Z,17.27
2019-01-26T20:50:48.663Z,16.40
2019-01-26T20:53:18.176Z,17.80
2019-01-26T20:55:47.920Z,17.63
2019-01-26T20:58:17.803Z,19.37
2019-01-26T21:00:47.561Z,18.83
2019-01-26T21:03:17.173Z,17.10
2019-01-26T21:05:46.784Z,18.00
2019-01-26T21:08:16.653Z,17.93
2019-01-26T21:10:46.360Z,18.20
2019-01-26T21:13:16.597Z,15.60
2019-01-26T21:15:46.358Z,15.37
2019-01-26T21:18:16.232Z,17.53
2019-01-26T21:20:45.898Z,15.67
2019-01-26T21:23:15.430Z,13.57
2019-01-26T21:25:45.070Z,14.53
2019-01-26T21:28:14.824Z,13.50
2019-01-26T21:30:44.336Z,12.40
2019-01-26T21:33:13.859Z,13.20
2019-01-26T21:35:43.469Z,11.93
2019-01-26T21:38:13.245Z,14.00
2019-01-26T21:40:42.785Z,11.80
2019-01-26T21:43:12.312Z,12.57
2019-01-26T21:45:42.097Z,11.80
2019-01-26T21:48:11.954Z,13.00
2019-01-26T21:50:41.561Z,12.80
2019-01-26T21:53:11.070Z,12.93
2019-01-26T21:55:40.849Z,13.17
2019-01-26T21:58:10.366Z,12.17
2019-01-26T22:00:39.987Z,12.30
2019-01-26T22:03:09.685Z,13.60
2019-01-26T22:05:39.640Z,12.57
2019-01-26T22:08:09.293Z,12.90
2019-01-26T22:10:38.817Z,12.27
2019-01-26T22:13:08.733Z,14.23
2019-01-26T22:15:38.330Z,12.83
2019-01-26T22:18:08.061Z,12.13
2019-01-26T22:20:38.135Z,15.20
2019-01-26T22:23:07.879Z,13.20
2019-01-26T22:25:37.417Z,13.73
2019-01-26T22:28:07.151Z,14.47
2019-01-26T22:30:36.814Z,13.10
2019-01-26T22:33:06.584Z,14.27
2019-01-26T22:35:36.275Z,13.67
2019-01-26T22:38:06.402Z,14.80
2019-01-26T22:40:37.015Z,13.23
2019-01-26T22:43:07.076Z,13.43
2019-01-26T22:45:36.746Z,13.47
2019-01-26T22:48:06.523Z,13.23
2019-01-26T22:50:36.460Z,13.87
2019-01-26T22:53:06.430Z,14.90
2019-01-26T22:55:36.367Z,13.97
2019-01-26T22:58:06.386Z,14.40
2019-01-26T23:00:53.579Z,14.90
2019-01-26T23:03:37.446Z,14.10
2019-01-26T23:06:17.436Z,16.40
2019-01-26T23:08:49.185Z,16.97
2019-01-26T23:11:37.874Z,17.17
2019-01-26T23:14:17.819Z,16.80
2019-01-26T23:17:28.668Z,17.97
2019-01-26T23:20:08.758Z,17.70
2019-01-26T23:23:06.750Z,17.30
2019-01-26T23:25:43.830Z,18.63
2019-01-26T23:28:29.467Z,19.60
2019-01-26T23:31:16.992Z,18.60
2019-01-26T23:33:47.728Z,19.97
2019-01-26T23:36:20.263Z,20.63
2019-01-26T23:38:49.152Z,20.83
2019-01-26T23:41:18.927Z,20.00
2019-01-26T23:43:48.450Z,20.97
2019-01-26T23:46:18.149Z,20.17
2019-01-26T23:48:47.692Z,20.90
2019-01-26T23:51:17.289Z,21.20
2019-01-26T23:53:46.898Z,19.63
2019-01-26T23:56:16.840Z,19.93
2019-01-26T23:58:46.318Z,20.60
